Time;durP1;ratioP1;P1;durP2;ratioP2;P2;SDS_P1;SDS_P2;PMS_P1;PMS_P2;Temp;Humidity;BMP_temperature;BMP_pressure;BME280_temperature;BME280_humidity;BME280_pressure;Samples;Min_cycle;Max_cycle;Signal;HPM_P1;HPM_P2
2023/12/15 00:00:16;;;;;;;37.13;13.43;;;3.30;99.90;;;;;;4214287;28;20506;-76
2023/12/15 00:02:18;;;;;;;31.43;13.10;;;3.30;99.90;;;;;;4214189;28;20475;-76
2023/12/15 00:04:20;;;;;;;28.90;12.63;;;3.30;99.90;;;;;;4213572;28;20451;-76
2023/12/15 00:06:21;;;;;;;29.53;12.97;;;3.30;99.90;;;;;;4213496;28;20447;-76
2023/12/15 00:08:23;;;;;;;33.10;12.87;;;3.30;99.90;;;;;;4220228;28;20508;-76
2023/12/15 00:10:26;;;;;;;31.47;12.93;;;3.30;99.90;;;;;;4211119;28;20804;-76
2023/12/15 00:12:28;;;;;;;27.17;13.10;;;3.40;99.90;;;;;;4212505;28;20505;-77
2023/12/15 00:14:29;;;;;;;31.53;12.30;;;3.30;99.90;;;;;;4213107;28;20474;-76
2023/12/15 00:16:31;;;;;;;27.13;11.50;;;3.30;99.90;;;;;;4214127;28;20439;-77
2023/12/15 00:18:32;;;;;;;25.47;10.30;;;3.30;99.90;;;;;;4187150;28;20240;-77
2023/12/15 00:20:34;;;;;;;21.80;9.80;;;3.30;99.90;;;;;;4213317;28;20471;-76
2023/12/15 00:22:35;;;;;;;17.40;8.67;;;3.30;99.90;;;;;;4219531;28;20232;-76
2023/12/15 00:24:37;;;;;;;23.93;9.77;;;3.30;99.90;;;;;;4217166;28;20440;-77
2023/12/15 00:26:39;;;;;;;19.70;8.77;;;3.20;99.90;;;;;;4215331;28;20201;-76
2023/12/15 00:28:41;;;;;;;20.43;9.63;;;3.20;99.90;;;;;;4217514;28;20479;-76
2023/12/15 00:30:43;;;;;;;18.13;8.53;;;3.20;99.90;;;;;;4214223;28;20458;-76
2023/12/15 00:32:45;;;;;;;17.70;8.23;;;3.20;99.90;;;;;;4217304;28;20439;-76
2023/12/15 00:34:47;;;;;;;17.67;8.00;;;3.20;99.90;;;;;;4213154;28;20508;-76
2023/12/15 00:36:49;;;;;;;18.57;8.37;;;3.20;99.90;;;;;;4209453;28;21298;-76
2023/12/15 00:38:50;;;;;;;19.13;8.57;;;3.20;99.90;;;;;;4210629;28;20455;-76
2023/12/15 00:40:52;;;;;;;16.07;7.60;;;3.20;99.90;;;;;;4216742;28;20877;-76
2023/12/15 00:42:56;;;;;;;16.00;7.70;;;3.20;99.90;;;;;;4214079;28;20466;-76
2023/12/15 00:44:58;;;;;;;17.47;8.00;;;3.20;99.90;;;;;;4213724;28;20463;-76
2023/12/15 00:47:00;;;;;;;19.70;8.27;;;3.20;99.90;;;;;;4196895;28;20440;-76
2023/12/15 00:49:01;;;;;;;16.90;8.17;;;3.20;99.90;;;;;;4213986;28;20446;-76
2023/12/15 00:51:03;;;;;;;15.77;7.17;;;3.20;99.90;;;;;;4211336;28;20487;-76
2023/12/15 00:53:05;;;;;;;18.07;7.90;;;3.10;99.90;;;;;;4211431;28;20282;-76
2023/12/15 00:55:06;;;;;;;16.07;7.37;;;3.10;99.90;;;;;;4212033;28;20443;-76
2023/12/15 00:57:08;;;;;;;19.63;8.87;;;3.10;99.90;;;;;;4193950;28;20525;-76
2023/12/15 00:59:11;;;;;;;18.17;8.10;;;3.10;99.90;;;;;;4209896;28;20879;-76
2023/12/15 01:01:13;;;;;;;18.43;9.00;;;3.10;99.90;;;;;;4212086;28;20574;-76
2023/12/15 01:03:15;;;;;;;23.77;9.07;;;3.20;99.90;;;;;;4213196;28;20443;-76
2023/12/15 01:05:19;;;;;;;27.80;10.47;;;3.20;99.90;;;;;;4210124;28;20484;-76
2023/12/15 01:07:22;;;;;;;21.23;8.77;;;3.20;99.90;;;;;;4212613;28;20509;-76
2023/12/15 01:09:23;;;;;;;27.40;9.47;;;3.20;99.90;;;;;;4216856;28;20445;-76
2023/12/15 01:11:25;;;;;;;21.20;9.43;;;3.20;99.90;;;;;;4217483;28;20448;-76
2023/12/15 01:13:27;;;;;;;21.67;9.97;;;3.20;99.90;;;;;;4214036;28;20210;-76
2023/12/15 01:15:31;;;;;;;22.87;9.83;;;3.20;99.90;;;;;;4211616;28;20439;-76
2023/12/15 01:17:33;;;;;;;20.07;9.47;;;3.20;99.90;;;;;;4209979;28;20974;-76
2023/12/15 01:19:34;;;;;;;20.03;9.63;;;3.20;99.90;;;;;;4212471;28;20440;-76
2023/12/15 01:21:36;;;;;;;26.47;10.80;;;3.20;99.90;;;;;;4215476;28;20511;-76
2023/12/15 01:23:38;;;;;;;28.60;10.93;;;3.20;99.90;;;;;;4212247;28;20447;-76
2023/12/15 01:25:40;;;;;;;24.43;11.27;;;3.20;99.90;;;;;;4213632;28;20826;-76
2023/12/15 01:27:41;;;;;;;24.60;10.67;;;3.20;99.90;;;;;;4221621;28;20784;-76
2023/12/15 01:29:43;;;;;;;25.20;10.77;;;3.20;99.90;;;;;;4218367;28;20528;-76
2023/12/15 01:31:46;;;;;;;26.67;11.50;;;3.30;99.90;;;;;;4215412;28;20752;-76
2023/12/15 01:33:48;;;;;;;27.77;11.30;;;3.20;99.90;;;;;;4217326;28;20451;-76
2023/12/15 01:35:50;;;;;;;31.17;11.17;;;3.30;99.90;;;;;;4208246;28;20510;-77
2023/12/15 01:37:54;;;;;;;24.63;10.23;;;3.20;99.90;;;;;;4207608;28;20451;-76
2023/12/15 01:39:59;;;;;;;29.30;10.87;;;3.30;99.90;;;;;;4212703;28;21028;-77
2023/12/15 01:42:04;;;;;;;25.63;11.23;;;3.30;99.90;;;;;;4211669;28;20485;-76
2023/12/15 01:44:07;;;;;;;24.20;10.17;;;3.20;99.90;;;;;;4214745;28;20498;-77
2023/12/15 01:46:07;;;;;;;27.63;11.60;;;3.20;99.90;;;;;;4214257;28;20473;-76
2023/12/15 01:48:12;;;;;;;32.10;12.73;;;3.20;99.90;;;;;;4217305;28;20501;-76
2023/12/15 01:50:13;;;;;;;27.67;12.50;;;3.20;99.90;;;;;;4216152;28;20205;-76
2023/12/15 01:52:15;;;;;;;27.80;11.60;;;3.10;99.90;;;;;;4220332;28;21264;-76
2023/12/15 01:54:17;;;;;;;29.33;11.73;;;3.10;99.90;;;;;;4214347;28;20288;-76
2023/12/15 01:56:18;;;;;;;30.40;12.10;;;3.10;99.90;;;;;;4211889;28;20496;-76
2023/12/15 01:58:20;;;;;;;30.63;12.73;;;3.10;99.90;;;;;;4212540;28;21186;-76
2023/12/15 02:00:22;;;;;;;28.60;11.90;;;3.10;99.90;;;;;;4212131;28;20867;-76
2023/12/15 02:02:23;;;;;;;33.93;13.10;;;3.00;99.90;;;;;;4215795;28;21028;-76
2023/12/15 02:04:27;;;;;;;27.80;12.23;;;3.00;99.90;;;;;;4214442;28;20444;-77
2023/12/15 02:06:29;;;;;;;28.10;11.60;;;3.00;99.90;;;;;;4216100;28;20250;-77
2023/12/15 02:08:31;;;;;;;27.73;11.77;;;3.00;99.90;;;;;;4216438;28;20440;-76
2023/12/15 02:10:36;;;;;;;27.87;11.90;;;3.00;99.90;;;;;;4215220;28;20533;-76
2023/12/15 02:12:38;;;;;;;25.00;11.23;;;3.00;99.90;;;;;;4211133;28;20447;-76
2023/12/15 02:14:43;;;;;;;29.80;12.00;;;3.00;99.90;;;;;;4217709;28;20493;-76
2023/12/15 02:16:47;;;;;;;27.00;11.97;;;3.00;99.90;;;;;;4217337;28;20931;-76
2023/12/15 02:18:52;;;;;;;27.80;11.20;;;3.00;99.90;;;;;;4216102;28;20450;-76
2023/12/15 02:20:54;;;;;;;30.37;11.47;;;2.90;99.90;;;;;;4219056;28;21194;-77
2023/12/15 02:22:59;;;;;;;30.07;10.90;;;2.90;99.90;;;;;;4214098;28;20464;-76
2023/12/15 02:25:01;;;;;;;22.27;10.50;;;2.80;99.90;;;;;;4212976;28;20500;-76
2023/12/15 02:27:02;;;;;;;24.53;10.33;;;2.80;99.90;;;;;;4217775;28;20439;-76
2023/12/15 02:29:03;;;;;;;31.00;12.70;;;2.70;99.90;;;;;;4215799;28;20866;-76
2023/12/15 02:31:04;;;;;;;33.80;13.00;;;2.70;99.90;;;;;;4219278;28;20217;-77
2023/12/15 02:33:06;;;;;;;30.70;12.80;;;2.60;99.90;;;;;;4215230;28;20432;-76
2023/12/15 02:35:11;;;;;;;25.30;10.73;;;2.60;99.90;;;;;;4214131;28;20435;-76
2023/12/15 02:37:13;;;;;;;27.07;11.67;;;2.50;99.90;;;;;;4217867;28;20815;-76
2023/12/15 02:39:16;;;;;;;31.80;12.60;;;2.50;99.90;;;;;;4214935;28;20488;-76
2023/12/15 02:41:21;;;;;;;36.90;11.97;;;2.50;99.90;;;;;;4213957;28;20479;-77
2023/12/15 02:43:22;;;;;;;32.40;12.13;;;2.40;99.90;;;;;;4196161;28;20475;-76
2023/12/15 02:45:23;;;;;;;30.23;11.63;;;2.30;99.90;;;;;;4215888;28;20471;-78
2023/12/15 02:47:26;;;;;;;24.87;11.07;;;2.30;99.90;;;;;;4214310;28;21396;-76
2023/12/15 02:49:28;;;;;;;32.33;11.80;;;2.30;99.90;;;;;;4222486;28;20208;-77
2023/12/15 02:51:32;;;;;;;30.60;11.17;;;2.20;99.90;;;;;;4215357;28;20528;-77
2023/12/15 02:53:34;;;;;;;28.13;11.17;;;2.20;99.90;;;;;;4214769;28;20443;-77
2023/12/15 02:55:38;;;;;;;28.77;12.07;;;2.10;99.90;;;;;;4221573;28;20439;-76
2023/12/15 02:57:39;;;;;;;30.93;11.83;;;2.10;99.90;;;;;;4212828;28;20455;-76
2023/12/15 02:59:41;;;;;;;30.13;12.10;;;2.10;99.90;;;;;;4213640;28;20447;-77
2023/12/15 03:01:42;;;;;;;26.03;11.13;;;2.10;99.90;;;;;;4210989;28;20489;-77
2023/12/15 03:03:44;;;;;;;26.30;11.00;;;2.10;99.90;;;;;;4216789;28;20474;-77
2023/12/15 03:05:46;;;;;;;29.87;11.40;;;2.00;99.90;;;;;;4210074;28;20222;-76
2023/12/15 03:07:48;;;;;;;28.70;11.23;;;2.00;99.90;;;;;;4217460;28;20439;-77
2023/12/15 03:09:50;;;;;;;23.63;10.00;;;2.00;99.90;;;;;;4212381;28;20467;-77
2023/12/15 03:11:53;;;;;;;26.03;10.73;;;1.90;99.90;;;;;;4214140;28;20827;-77
2023/12/15 03:13:55;;;;;;;25.73;10.37;;;1.90;99.90;;;;;;4212948;28;20995;-77
2023/12/15 03:16:03;;;;;;;24.77;10.10;;;1.90;99.90;;;;;;4213880;28;20443;-77
2023/12/15 03:18:05;;;;;;;28.27;10.47;;;1.80;99.90;;;;;;4212115;28;20781;-77
2023/12/15 03:20:08;;;;;;;30.03;11.20;;;1.80;99.90;;;;;;4216873;28;20514;-77
2023/12/15 03:22:10;;;;;;;27.93;10.27;;;1.80;99.90;;;;;;4216191;28;20846;-77
2023/12/15 03:24:12;;;;;;;19.93;9.20;;;1.80;99.90;;;;;;4215811;28;20814;-77
2023/12/15 03:26:14;;;;;;;30.60;12.07;;;1.70;99.90;;;;;;4213655;28;20843;-77
2023/12/15 03:28:17;;;;;;;27.13;10.00;;;1.70;99.90;;;;;;4214068;28;20512;-77
2023/12/15 03:30:19;;;;;;;29.53;11.00;;;1.70;99.90;;;;;;4217133;28;20439;-77
2023/12/15 03:32:21;;;;;;;29.03;10.90;;;1.70;99.90;;;;;;4214031;28;20446;-77
2023/12/15 03:34:23;;;;;;;23.70;9.87;;;1.70;99.90;;;;;;4211479;28;20444;-77
2023/12/15 03:36:25;;;;;;;26.03;10.77;;;1.70;99.90;;;;;;4206778;28;20448;-77
2023/12/15 03:38:27;;;;;;;25.17;9.40;;;1.60;99.90;;;;;;4201354;28;20443;-77
2023/12/15 03:40:29;;;;;;;23.20;9.63;;;1.60;99.90;;;;;;4198194;28;20488;-77
2023/12/15 03:42:31;;;;;;;25.17;9.67;;;1.60;99.90;;;;;;4217277;28;20473;-77
2023/12/15 03:44:36;;;;;;;24.80;9.97;;;1.60;99.90;;;;;;4205599;28;20440;-77
2023/12/15 03:46:37;;;;;;;29.07;10.83;;;1.50;99.90;;;;;;4216702;28;20559;-77
2023/12/15 03:48:39;;;;;;;28.13;10.40;;;1.50;99.90;;;;;;4215922;28;20462;-77
2023/12/15 03:50:41;;;;;;;28.20;11.47;;;1.50;99.90;;;;;;4216182;28;20684;-77
2023/12/15 03:52:43;;;;;;;26.17;9.93;;;1.40;99.90;;;;;;4208154;28;20427;-77
2023/12/15 03:54:45;;;;;;;28.40;10.73;;;1.60;99.90;;;;;;4215564;28;20488;-77
2023/12/15 03:56:46;;;;;;;27.77;10.90;;;1.40;99.90;;;;;;4211547;28;20475;-77
2023/12/15 03:58:48;;;;;;;27.87;10.93;;;1.40;99.90;;;;;;4218015;28;20495;-77
2023/12/15 04:00:51;;;;;;;28.70;11.07;;;1.30;99.90;;;;;;4210961;28;20232;-76
2023/12/15 04:02:53;;;;;;;25.30;10.57;;;1.30;99.90;;;;;;4215109;28;21114;-76
2023/12/15 04:04:55;;;;;;;30.77;10.30;;;1.30;99.90;;;;;;4211970;28;20446;-77
2023/12/15 04:06:57;;;;;;;30.87;10.07;;;1.30;99.90;;;;;;4216105;28;20948;-77
2023/12/15 04:08:59;;;;;;;26.40;10.73;;;1.30;99.90;;;;;;4213251;28;20885;-77
2023/12/15 04:11:00;;;;;;;24.93;10.13;;;1.20;99.90;;;;;;4210150;28;20533;-77
2023/12/15 04:13:01;;;;;;;23.67;9.77;;;1.20;99.90;;;;;;4211957;28;20435;-77
2023/12/15 04:15:03;;;;;;;34.97;10.90;;;1.20;99.90;;;;;;4220380;28;20229;-76
2023/12/15 04:17:07;;;;;;;22.87;9.87;;;1.20;99.90;;;;;;4217476;28;20438;-76
2023/12/15 04:19:09;;;;;;;25.07;9.53;;;1.10;99.90;;;;;;4213526;28;20443;-76
2023/12/15 04:21:11;;;;;;;22.43;8.57;;;1.10;99.90;;;;;;4215066;28;20514;-76
2023/12/15 04:23:12;;;;;;;23.43;8.63;;;1.00;99.90;;;;;;4216809;28;21073;-77
2023/12/15 04:25:14;;;;;;;27.10;9.73;;;1.10;99.90;;;;;;4213798;28;20447;-77
2023/12/15 04:27:16;;;;;;;21.13;8.27;;;1.00;99.90;;;;;;4211783;28;20447;-76
2023/12/15 04:29:19;;;;;;;19.33;8.43;;;1.00;99.90;;;;;;4221957;28;20955;-77
2023/12/15 04:31:19;;;;;;;29.73;10.63;;;1.00;99.90;;;;;;4213480;28;20590;-77
2023/12/15 04:33:23;;;;;;;30.03;10.83;;;1.00;99.90;;;;;;4217680;28;21079;-76
2023/12/15 04:35:25;;;;;;;30.03;11.70;;;1.00;99.90;;;;;;4213966;28;20205;-77
2023/12/15 04:37:26;;;;;;;32.43;10.57;;;1.10;99.90;;;;;;4215637;28;20473;-77
2023/12/15 04:39:27;;;;;;;36.53;11.07;;;1.00;99.90;;;;;;4207639;28;20875;-76
2023/12/15 04:41:29;;;;;;;25.17;10.30;;;1.00;99.90;;;;;;4205078;28;20460;-77
2023/12/15 04:43:34;;;;;;;29.30;11.70;;;1.00;99.90;;;;;;4202842;28;20304;-77
2023/12/15 04:45:35;;;;;;;28.93;10.80;;;0.90;99.90;;;;;;4212833;28;21318;-77
2023/12/15 04:47:38;;;;;;;28.37;10.53;;;0.90;99.90;;;;;;4215508;28;20503;-77
2023/12/15 04:49:41;;;;;;;25.77;9.70;;;0.90;99.90;;;;;;4195080;28;20861;-76
2023/12/15 04:51:43;;;;;;;22.87;8.57;;;0.80;99.90;;;;;;4198861;28;20533;-77
2023/12/15 04:53:48;;;;;;;28.10;10.97;;;0.80;99.90;;;;;;4217148;28;20481;-76
2023/12/15 04:55:50;;;;;;;31.97;11.53;;;0.80;99.90;;;;;;4218270;28;20453;-76
2023/12/15 04:57:52;;;;;;;23.83;10.03;;;0.80;99.90;;;;;;4211858;28;20484;-77
2023/12/15 04:59:54;;;;;;;21.60;9.53;;;0.70;99.90;;;;;;4209913;28;20451;-76
2023/12/15 05:01:56;;;;;;;30.37;10.83;;;0.70;99.90;;;;;;4194620;28;20479;-77
2023/12/15 05:03:58;;;;;;;32.70;11.67;;;0.70;99.90;;;;;;4200503;28;20827;-76
2023/12/15 05:06:01;;;;;;;35.27;11.90;;;0.70;99.90;;;;;;4200253;28;20447;-77
2023/12/15 05:08:04;;;;;;;28.57;10.27;;;0.70;99.90;;;;;;4209766;28;20454;-76
2023/12/15 05:10:07;;;;;;;31.27;11.20;;;0.70;99.90;;;;;;4215062;28;20449;-77
2023/12/15 05:12:08;;;;;;;30.10;11.53;;;0.70;99.90;;;;;;4211418;28;20996;-77
2023/12/15 05:14:10;;;;;;;37.13;12.90;;;0.60;99.90;;;;;;4206909;28;20444;-76
2023/12/15 05:16:13;;;;;;;31.80;11.97;;;0.70;99.90;;;;;;4206614;28;20267;-77
2023/12/15 05:18:16;;;;;;;31.57;11.97;;;0.60;99.90;;;;;;4208644;28;20435;-76
2023/12/15 05:20:19;;;;;;;29.60;11.77;;;0.60;99.90;;;;;;4208704;28;20667;-77
2023/12/15 05:22:23;;;;;;;36.77;13.33;;;0.60;99.90;;;;;;4203664;28;20487;-76
2023/12/15 05:24:25;;;;;;;33.90;12.47;;;0.60;99.90;;;;;;4203246;28;20484;-76
2023/12/15 05:26:27;;;;;;;31.07;11.80;;;0.60;99.90;;;;;;4202448;28;20451;-76
2023/12/15 05:28:28;;;;;;;33.33;12.17;;;0.60;99.90;;;;;;4215740;28;20437;-76
2023/12/15 05:30:30;;;;;;;32.93;12.00;;;0.60;99.90;;;;;;4214115;28;20871;-77
2023/12/15 05:32:32;;;;;;;35.00;11.87;;;0.60;99.90;;;;;;4214662;28;20862;-77
2023/12/15 05:34:33;;;;;;;33.37;11.93;;;0.60;99.90;;;;;;4215830;28;20439;-76
2023/12/15 05:36:35;;;;;;;37.93;13.23;;;0.70;99.90;;;;;;4213742;28;20446;-76
2023/12/15 05:38:39;;;;;;;30.03;11.50;;;0.50;99.90;;;;;;4212571;28;20443;-77
2023/12/15 05:40:40;;;;;;;32.97;12.10;;;0.50;99.90;;;;;;4213313;28;20467;-76
2023/12/15 05:42:42;;;;;;;33.13;12.53;;;0.60;99.90;;;;;;4214722;28;20467;-77
2023/12/15 05:44:44;;;;;;;34.97;12.80;;;0.90;99.90;;;;;;4214335;28;20479;-77
2023/12/15 05:46:46;;;;;;;27.77;10.90;;;0.50;99.90;;;;;;4217859;28;20447;-77
2023/12/15 05:48:48;;;;;;;33.37;12.83;;;0.50;99.90;;;;;;4213554;28;20872;-76
2023/12/15 05:50:50;;;;;;;32.00;11.87;;;0.50;99.90;;;;;;4206724;28;20485;-77
2023/12/15 05:52:52;;;;;;;32.43;11.60;;;0.50;99.90;;;;;;4214092;28;20875;-77
2023/12/15 05:54:55;;;;;;;34.97;12.33;;;0.50;99.90;;;;;;4208578;28;22038;-76
2023/12/15 05:56:57;;;;;;;31.53;11.80;;;0.70;99.90;;;;;;4206960;28;20565;-77
2023/12/15 05:58:57;;;;;;;36.00;11.97;;;0.50;99.90;;;;;;4202638;28;20485;-77
2023/12/15 06:00:59;;;;;;;31.83;12.30;;;0.50;99.90;;;;;;4206645;28;21033;-77
2023/12/15 06:03:04;;;;;;;32.67;11.97;;;0.40;99.90;;;;;;4215058;28;20217;-76
2023/12/15 06:05:06;;;;;;;38.27;13.77;;;0.50;99.90;;;;;;4211583;28;20466;-77
2023/12/15 06:07:09;;;;;;;32.73;11.93;;;0.40;99.90;;;;;;4214352;28;20442;-76
2023/12/15 06:09:10;;;;;;;29.80;12.27;;;0.50;99.90;;;;;;4211999;28;20447;-76
2023/12/15 06:11:14;;;;;;;37.53;12.77;;;0.50;99.90;;;;;;4212463;28;20519;-76
2023/12/15 06:13:16;;;;;;;34.10;12.37;;;0.50;99.90;;;;;;4210037;28;20454;-76
2023/12/15 06:15:18;;;;;;;31.23;11.83;;;0.40;99.90;;;;;;4210082;28;20442;-77
2023/12/15 06:17:20;;;;;;;27.80;10.03;;;0.40;99.90;;;;;;4208901;28;20458;-77
2023/12/15 06:19:21;;;;;;;33.17;12.17;;;0.40;99.90;;;;;;4206627;28;20454;-77
2023/12/15 06:21:23;;;;;;;37.17;12.93;;;0.50;99.90;;;;;;4212357;28;20570;-77
2023/12/15 06:23:25;;;;;;;35.20;12.87;;;0.40;99.90;;;;;;4213207;28;20224;-77
2023/12/15 06:25:27;;;;;;;36.53;13.60;;;0.40;99.90;;;;;;4203249;28;20432;-77
2023/12/15 06:27:32;;;;;;;38.13;14.57;;;0.50;99.90;;;;;;4210644;28;20446;-77
2023/12/15 06:29:34;;;;;;;43.30;16.60;;;0.40;99.90;;;;;;4212154;28;21279;-77
2023/12/15 06:31:36;;;;;;;44.50;15.87;;;0.40;99.90;;;;;;4205307;28;20474;-77
2023/12/15 06:33:37;;;;;;;42.47;15.40;;;0.30;99.90;;;;;;4212180;28;20454;-78
2023/12/15 06:35:39;;;;;;;35.53;13.20;;;0.30;99.90;;;;;;4214309;28;20493;-79
2023/12/15 06:37:41;;;;;;;33.17;11.60;;;0.30;99.90;;;;;;4208767;28;20847;-82
2023/12/15 06:39:45;;;;;;;34.77;12.43;;;0.30;99.90;;;;;;4209759;28;20442;-79
2023/12/15 06:41:47;;;;;;;32.20;12.03;;;0.30;99.90;;;;;;4210506;28;20561;-80
2023/12/15 06:43:53;;;;;;;29.50;11.40;;;0.30;99.90;;;;;;4212899;28;20487;-79
2023/12/15 06:45:54;;;;;;;34.23;12.23;;;0.30;99.90;;;;;;4212695;28;20514;-80
2023/12/15 06:47:56;;;;;;;27.43;11.37;;;1.00;99.90;;;;;;4215593;28;20990;-78
2023/12/15 06:49:58;;;;;;;33.43;12.50;;;0.30;99.90;;;;;;4216497;28;20789;-77
2023/12/15 06:52:05;;;;;;;33.90;13.23;;;0.30;99.90;;;;;;4211206;28;20485;-80
2023/12/15 06:54:07;;;;;;;35.83;11.90;;;0.30;99.90;;;;;;4215875;28;20922;-75
2023/12/15 06:56:09;;;;;;;36.27;12.87;;;0.30;99.90;;;;;;4214249;28;20469;-79
2023/12/15 06:58:10;;;;;;;32.53;12.07;;;0.40;99.90;;;;;;4220946;28;20438;-77
2023/12/15 07:00:15;;;;;;;34.83;13.30;;;0.40;99.90;;;;;;4212372;28;20446;-76
2023/12/15 07:02:20;;;;;;;38.90;14.20;;;0.40;99.90;;;;;;4214067;28;20455;-81
2023/12/15 07:04:21;;;;;;;35.03;13.03;;;0.40;99.90;;;;;;4214934;28;20463;-79
2023/12/15 07:06:23;;;;;;;30.90;12.13;;;0.40;99.90;;;;;;4214338;28;20446;-77
2023/12/15 07:08:25;;;;;;;32.63;12.67;;;0.40;99.90;;;;;;4214170;28;20699;-77
2023/12/15 07:10:26;;;;;;;33.00;12.33;;;0.40;99.90;;;;;;4207497;28;20474;-78
2023/12/15 07:12:28;;;;;;;35.17;12.80;;;0.40;99.90;;;;;;4207772;28;20450;-77
2023/12/15 07:14:30;;;;;;;31.53;11.77;;;0.40;99.90;;;;;;4209929;28;20200;-75
2023/12/15 07:16:33;;;;;;;33.67;12.57;;;0.50;99.90;;;;;;4210377;28;20446;-75
2023/12/15 07:18:35;;;;;;;31.43;12.60;;;0.50;99.90;;;;;;4204695;28;20462;-75
2023/12/15 07:20:37;;;;;;;32.93;12.33;;;0.50;99.90;;;;;;4205172;28;20486;-74
2023/12/15 07:22:39;;;;;;;33.60;12.23;;;0.50;99.90;;;;;;4210585;28;20460;-73
2023/12/15 07:24:41;;;;;;;35.63;13.40;;;0.40;99.90;;;;;;4208170;28;20528;-74
2023/12/15 07:26:43;;;;;;;35.93;12.70;;;0.50;99.90;;;;;;4212746;28;20474;-75
2023/12/15 07:28:45;;;;;;;38.37;14.13;;;0.50;99.90;;;;;;4212514;28;20435;-75
2023/12/15 07:30:46;;;;;;;35.20;13.47;;;0.60;99.90;;;;;;4212299;28;21021;-74
2023/12/15 07:32:49;;;;;;;33.87;12.90;;;0.60;99.90;;;;;;4214027;28;20450;-75
2023/12/15 07:34:51;;;;;;;36.23;12.57;;;0.60;99.90;;;;;;4187150;28;20443;-75
2023/12/15 07:36:53;;;;;;;38.10;13.10;;;0.70;99.90;;;;;;4212537;28;20447;-75
2023/12/15 07:38:54;;;;;;;35.07;13.50;;;0.70;99.90;;;;;;4211835;28;20452;-74
2023/12/15 07:40:56;;;;;;;35.67;13.27;;;0.80;99.90;;;;;;4194307;28;20489;-74
2023/12/15 07:42:58;;;;;;;34.00;13.10;;;0.80;99.90;;;;;;4205948;28;21018;-75
2023/12/15 07:45:00;;;;;;;36.20;12.77;;;0.80;99.90;;;;;;4212690;28;20560;-76
2023/12/15 07:47:02;;;;;;;32.60;12.27;;;0.80;99.90;;;;;;4209732;28;20471;-75
2023/12/15 07:49:05;;;;;;;38.33;13.67;;;0.80;99.90;;;;;;4213229;28;20936;-75
2023/12/15 07:51:15;;;;;;;35.40;13.47;;;0.90;99.90;;;;;;4212893;28;20896;-76
2023/12/15 07:53:17;;;;;;;33.83;12.77;;;0.90;99.90;;;;;;4211119;28;20486;-75
2023/12/15 07:55:19;;;;;;;39.80;14.57;;;1.00;99.90;;;;;;4194749;28;21017;-75
2023/12/15 07:57:21;;;;;;;34.93;13.93;;;1.00;99.90;;;;;;4211210;28;20519;-76
2023/12/15 07:59:23;;;;;;;37.27;13.80;;;1.00;99.90;;;;;;4212519;28;20589;-76
2023/12/15 08:01:25;;;;;;;38.13;13.93;;;1.00;99.90;;;;;;4213831;28;20623;-76
2023/12/15 08:03:26;;;;;;;32.40;12.93;;;1.10;99.90;;;;;;4212833;28;20795;-75
2023/12/15 08:05:29;;;;;;;36.50;13.63;;;1.10;99.90;;;;;;4209971;28;20485;-76
2023/12/15 08:07:31;;;;;;;34.57;12.57;;;1.10;99.90;;;;;;4213850;28;20209;-75
2023/12/15 08:09:32;;;;;;;33.63;12.17;;;1.10;99.90;;;;;;4212647;28;20447;-75
2023/12/15 08:11:34;;;;;;;38.33;13.43;;;1.20;99.90;;;;;;4193740;28;20746;-75
2023/12/15 08:13:35;;;;;;;37.47;12.83;;;1.30;99.90;;;;;;4212596;28;20213;-76
2023/12/15 08:15:37;;;;;;;38.33;13.70;;;1.30;99.90;;;;;;4210955;28;20990;-75
2023/12/15 08:17:39;;;;;;;34.93;13.57;;;1.30;99.90;;;;;;4210151;28;20535;-75
2023/12/15 08:19:43;;;;;;;39.53;13.13;;;1.40;99.90;;;;;;4212872;28;20495;-74
2023/12/15 08:21:47;;;;;;;33.13;13.00;;;1.40;99.90;;;;;;4211892;28;20554;-74
2023/12/15 08:23:50;;;;;;;30.90;12.30;;;1.60;99.90;;;;;;4212368;28;20446;-74
2023/12/15 08:25:52;;;;;;;28.90;11.50;;;1.50;99.90;;;;;;4189910;28;20504;-73
2023/12/15 08:27:54;;;;;;;32.47;12.77;;;1.50;99.90;;;;;;4211545;28;20450;-74
2023/12/15 08:29:57;;;;;;;32.40;12.23;;;1.50;99.90;;;;;;4211101;28;20443;-75
2023/12/15 08:31:58;;;;;;;34.43;12.83;;;1.40;99.90;;;;;;4212566;28;20463;-74
2023/12/15 08:34:00;;;;;;;33.23;12.47;;;1.50;99.90;;;;;;4210992;28;20452;-74
2023/12/15 08:36:02;;;;;;;31.10;11.87;;;1.60;99.90;;;;;;4210875;28;21178;-72
2023/12/15 08:38:06;;;;;;;32.57;11.70;;;1.60;99.90;;;;;;4212580;28;20447;-74
2023/12/15 08:40:09;;;;;;;30.37;12.03;;;1.60;99.90;;;;;;4212155;28;20459;-74
2023/12/15 08:42:10;;;;;;;33.90;12.73;;;1.60;99.90;;;;;;4209793;28;20470;-74
2023/12/15 08:44:12;;;;;;;31.50;13.03;;;1.70;99.90;;;;;;4211810;28;20524;-74
2023/12/15 08:46:13;;;;;;;31.17;12.30;;;1.70;99.90;;;;;;4212443;28;20201;-74
2023/12/15 08:48:14;;;;;;;32.30;11.77;;;1.70;99.90;;;;;;4210900;28;20489;-76
2023/12/15 08:50:17;;;;;;;37.20;13.00;;;1.80;99.90;;;;;;4211755;28;20231;-75
2023/12/15 08:52:19;;;;;;;32.97;12.77;;;1.80;99.90;;;;;;4216224;28;21191;-73
2023/12/15 08:54:22;;;;;;;29.60;11.70;;;1.80;99.90;;;;;;4215126;28;20451;-73
2023/12/15 08:56:26;;;;;;;27.93;11.00;;;1.90;99.90;;;;;;4196124;28;20463;-73
2023/12/15 08:58:28;;;;;;;30.83;12.53;;;1.90;99.90;;;;;;4210627;28;20904;-75
2023/12/15 09:00:30;;;;;;;30.73;11.57;;;2.20;99.90;;;;;;4215313;28;20524;-74
2023/12/15 09:02:33;;;;;;;29.23;11.67;;;2.00;99.90;;;;;;4215955;28;20469;-74
2023/12/15 09:04:34;;;;;;;32.20;12.10;;;2.10;99.90;;;;;;4210891;28;20493;-74
2023/12/15 09:06:36;;;;;;;29.00;11.93;;;2.10;99.90;;;;;;4209185;28;20515;-74
2023/12/15 09:08:38;;;;;;;32.47;11.53;;;2.10;99.90;;;;;;4214065;28;20443;-75
2023/12/15 09:10:43;;;;;;;30.17;11.90;;;2.20;99.90;;;;;;4192907;28;20498;-75
2023/12/15 09:12:45;;;;;;;27.67;11.33;;;2.20;99.90;;;;;;4215482;28;20435;-75
2023/12/15 09:14:47;;;;;;;29.43;12.33;;;2.30;99.90;;;;;;4216989;28;20500;-75
2023/12/15 09:16:49;;;;;;;27.47;11.77;;;2.40;99.90;;;;;;4215007;28;20451;-75
2023/12/15 09:18:51;;;;;;;28.13;11.57;;;2.30;99.90;;;;;;4209483;28;20449;-75
2023/12/15 09:20:53;;;;;;;29.20;12.17;;;2.40;99.90;;;;;;4211275;28;20493;-73
2023/12/15 09:22:55;;;;;;;26.10;10.77;;;2.40;99.90;;;;;;4214980;28;20955;-74
2023/12/15 09:24:57;;;;;;;29.40;11.57;;;2.50;99.90;;;;;;4215618;28;20489;-75
2023/12/15 09:27:00;;;;;;;26.67;10.43;;;2.50;99.90;;;;;;4216779;28;20455;-72
2023/12/15 09:29:02;;;;;;;29.50;11.43;;;2.50;99.90;;;;;;4215954;28;20443;-74
2023/12/15 09:31:04;;;;;;;29.10;11.77;;;2.60;99.90;;;;;;4213244;28;20466;-72
2023/12/15 09:33:05;;;;;;;32.67;11.67;;;2.60;99.90;;;;;;4214029;28;20447;-71
2023/12/15 09:35:08;;;;;;;28.70;12.20;;;2.60;99.90;;;;;;4220468;28;20434;-72
2023/12/15 09:37:10;;;;;;;27.30;11.77;;;2.60;99.90;;;;;;4215644;28;20463;-71
2023/12/15 09:39:11;;;;;;;31.93;12.77;;;2.70;99.90;;;;;;4210896;28;20470;-74
2023/12/15 09:41:14;;;;;;;29.17;10.97;;;2.70;99.90;;;;;;4213854;28;21340;-74
2023/12/15 09:43:19;;;;;;;29.13;12.27;;;2.70;99.90;;;;;;4214104;28;20436;-74
2023/12/15 09:45:21;;;;;;;27.83;11.37;;;2.80;99.90;;;;;;4212541;28;20553;-74
2023/12/15 09:47:25;;;;;;;31.07;11.90;;;2.80;99.90;;;;;;4217982;28;20452;-74
2023/12/15 09:49:32;;;;;;;25.13;11.30;;;2.80;99.90;;;;;;4217635;28;20538;-75
2023/12/15 09:51:39;;;;;;;34.83;13.07;;;2.90;99.90;;;;;;4211414;28;20459;-73
2023/12/15 09:53:45;;;;;;;30.27;11.43;;;2.90;99.90;;;;;;4218161;28;20434;-74
2023/12/15 09:55:48;;;;;;;32.60;12.60;;;3.00;99.90;;;;;;4217053;28;20463;-71
2023/12/15 09:57:50;;;;;;;29.00;11.97;;;3.00;99.90;;;;;;4215804;28;20446;-72
2023/12/15 09:59:54;;;;;;;32.00;11.93;;;3.00;99.90;;;;;;4219794;28;20532;-74
2023/12/15 10:01:57;;;;;;;33.90;12.57;;;3.10;99.90;;;;;;4211746;28;20461;-78
2023/12/15 10:03:59;;;;;;;32.63;12.33;;;3.30;99.90;;;;;;4219041;28;20928;-77
2023/12/15 10:06:00;;;;;;;28.10;12.20;;;3.10;99.90;;;;;;4215821;28;20475;-74
2023/12/15 10:08:04;;;;;;;33.80;13.20;;;3.10;99.90;;;;;;4214293;28;20500;-71
2023/12/15 10:10:06;;;;;;;31.63;11.83;;;3.10;99.90;;;;;;4212270;28;20451;-74
2023/12/15 10:12:09;;;;;;;33.03;11.83;;;3.10;99.90;;;;;;4211327;28;20448;-71
2023/12/15 10:14:14;;;;;;;30.47;11.97;;;3.10;99.90;;;;;;4208641;28;20459;-71
2023/12/15 10:16:19;;;;;;;31.70;12.37;;;3.20;99.90;;;;;;4213811;28;20509;-71
2023/12/15 10:18:22;;;;;;;34.13;12.13;;;3.10;99.90;;;;;;4210287;28;20451;-73
2023/12/15 10:20:27;;;;;;;31.57;12.30;;;3.00;99.90;;;;;;4188532;28;20765;-70
2023/12/15 10:22:28;;;;;;;31.63;12.73;;;3.10;99.90;;;;;;4196696;28;20447;-72
2023/12/15 10:24:33;;;;;;;32.53;12.77;;;3.10;99.90;;;;;;4204738;28;20444;-71
2023/12/15 10:26:36;;;;;;;29.70;12.23;;;3.10;99.90;;;;;;4201267;28;20504;-75
2023/12/15 10:28:38;;;;;;;36.60;13.47;;;3.10;99.90;;;;;;4219819;28;20451;-73